Ramea, Canada
Current Conditions -  °F | °C
As of 12:00 PM on Friday 31 Oct 2014 (Local Time) from LFVP Reporting Station
Broken Clouds Broken Clouds  
Wind Chill: 43°   Ceiling: 3300
Heat Index: 48°   Visibility: 6mi
Dew Point: 39°   Wind: 12mph
Humidity: 71%   Direction: 320°NW
Pressure: 29.97"   Gusts: NA
Location:  47.52°N, 57.42°W
Report Text: LFVP 311400Z 32010KT 280V360 9999 BKN033 09/04 Q1015 NOSIG
Loading
Personal Weather Stations






























Interactive Weather Map
Tropical Storm Tracking
New forecast layout! Learn more

10-Day Weather Forecast

Advertisements
Track Severe Weather on mobile